Time;durP1;ratioP1;P1;durP2;ratioP2;P2;SDS_P1;SDS_P2;PMS_P1;PMS_P2;Temp;Humidity;BMP_temperature;BMP_pressure;BME280_temperature;BME280_humidity;BME280_pressure;Samples;Min_cycle;Max_cycle;Signal;HPM_P1;HPM_P2
2022/10/01 00:00:19;;;;;;;;;;;11.20;99.90;;;;;;5060143;28;19938;-69
2022/10/01 00:02:46;;;;;;;;;;;11.20;99.90;;;;;;5067617;28;19939;-70
2022/10/01 00:05:13;;;;;;;;;;;11.20;99.90;;;;;;5059241;28;19972;-70
2022/10/01 00:07:40;;;;;;;;;;;11.20;99.90;;;;;;5062053;28;19930;-68
2022/10/01 00:10:09;;;;;;;;;;;11.20;99.90;;;;;;5060618;28;19925;-69
2022/10/01 00:12:36;;;;;;;;;;;11.20;99.90;;;;;;5069087;28;20350;-69
2022/10/01 00:15:08;;;;;;;;;;;11.30;99.90;;;;;;5064415;28;19980;-68
2022/10/01 00:17:34;;;;;;;;;;;11.30;99.90;;;;;;5069516;28;19924;-68
2022/10/01 00:20:02;;;;;;;;;;;11.30;99.90;;;;;;5065227;28;19924;-69
2022/10/01 00:22:30;;;;;;;;;;;11.30;99.90;;;;;;5066487;28;19970;-69
2022/10/01 00:24:58;;;;;;;;;;;11.30;99.90;;;;;;5067099;28;19932;-69
2022/10/01 00:27:26;;;;;;;;;;;11.30;99.90;;;;;;5069676;28;19929;-69
2022/10/01 00:29:53;;;;;;;;;;;11.30;99.90;;;;;;5066020;28;20394;-69
2022/10/01 00:32:19;;;;;;;;;;;11.20;99.90;;;;;;5063226;28;19931;-69
2022/10/01 00:34:47;;;;;;;;;;;11.20;99.90;;;;;;5061742;28;19925;-69
2022/10/01 00:37:14;;;;;;;;;;;11.20;99.90;;;;;;5067680;28;20288;-70
2022/10/01 00:39:41;;;;;;;;;;;11.20;99.90;;;;;;5067045;28;20214;-70
2022/10/01 00:42:16;;;;;;;;;;;11.10;99.90;;;;;;5057955;28;19932;-69
2022/10/01 00:44:45;;;;;;;;;;;11.10;99.90;;;;;;5066230;28;20035;-70
2022/10/01 00:47:17;;;;;;;;;;;11.10;99.90;;;;;;5051475;28;20015;-69
2022/10/01 00:49:46;;;;;;;;;;;11.00;99.90;;;;;;5065454;28;19928;-69
2022/10/01 00:52:14;;;;;;;;;;;11.00;99.90;;;;;;5069110;28;19932;-69
2022/10/01 00:54:43;;;;;;;;;;;11.10;99.90;;;;;;5067900;28;20017;-69
2022/10/01 00:57:13;;;;;;;;;;;11.00;99.90;;;;;;5064715;28;19928;-69
2022/10/01 00:59:39;;;;;;;;;;;11.00;99.90;;;;;;5064527;28;20406;-69
2022/10/01 01:02:07;;;;;;;;;;;11.00;99.90;;;;;;5064965;28;19925;-70
2022/10/01 01:04:34;;;;;;;;;;;11.00;99.90;;;;;;5067778;28;19931;-69
2022/10/01 01:07:02;;;;;;;;;;;11.10;99.90;;;;;;5068836;28;20007;-69
2022/10/01 01:09:30;;;;;;;;;;;11.10;99.90;;;;;;5061559;28;19935;-70
2022/10/01 01:12:01;;;;;;;;;;;11.10;99.90;;;;;;5068503;28;20295;-70
2022/10/01 01:14:33;;;;;;;;;;;11.10;99.90;;;;;;5066781;28;20024;-69
2022/10/01 01:17:07;;;;;;;;;;;11.10;99.90;;;;;;5069398;28;19929;-69
2022/10/01 01:19:43;;;;;;;;;;;11.10;99.90;;;;;;5069741;28;19924;-69
2022/10/01 01:22:12;;;;;;;;;;;11.10;99.90;;;;;;5068800;28;19935;-69
2022/10/01 01:24:47;;;;;;;;;;;11.10;99.90;;;;;;5070010;28;20370;-69
2022/10/01 01:27:25;;;;;;;;;;;11.10;99.90;;;;;;5071381;28;20011;-68
2022/10/01 01:29:55;;;;;;;;;;;11.10;99.90;;;;;;5071246;28;19924;-69
2022/10/01 01:32:24;;;;;;;;;;;11.10;99.90;;;;;;5070435;28;19936;-69
2022/10/01 01:34:53;;;;;;;;;;;11.10;99.90;;;;;;5065689;28;19990;-69
2022/10/01 01:37:22;;;;;;;;;;;11.20;99.90;;;;;;5066857;28;19928;-69
2022/10/01 01:39:52;;;;;;;;;;;11.10;99.90;;;;;;5069507;28;19936;-69
2022/10/01 01:42:22;;;;;;;;;;;11.10;99.90;;;;;;5070700;28;20494;-69
2022/10/01 01:44:53;;;;;;;;;;;11.20;99.90;;;;;;5064581;28;19924;-69
2022/10/01 01:47:21;;;;;;;;;;;11.20;99.90;;;;;;5067600;28;20314;-69
2022/10/01 01:49:49;;;;;;;;;;;11.20;99.90;;;;;;5068893;28;19931;-69
2022/10/01 01:52:17;;;;;;;;;;;11.20;99.90;;;;;;5070291;28;19978;-69
2022/10/01 01:54:45;;;;;;;;;;;11.20;99.90;;;;;;5067119;28;19932;-69
2022/10/01 01:57:12;;;;;;;;;;;11.20;99.90;;;;;;5065440;28;19929;-69
2022/10/01 01:59:40;;;;;;;;;;;11.30;99.90;;;;;;5068544;28;19928;-69
2022/10/01 02:02:06;;;;;;;;;;;11.30;99.90;;;;;;5071354;28;19939;-69
2022/10/01 02:04:36;;;;;;;;;;;11.30;99.90;;;;;;5073077;28;19925;-69
2022/10/01 02:07:21;;;;;;;;;;;11.30;99.90;;;;;;5070221;28;20015;-68
2022/10/01 02:09:54;;;;;;;;;;;11.40;99.90;;;;;;5069687;28;19935;-69
2022/10/01 02:12:26;;;;;;;;;;;11.40;99.90;;;;;;5064794;28;19931;-69
2022/10/01 02:14:56;;;;;;;;;;;11.50;99.90;;;;;;5072581;28;19931;-69
2022/10/01 02:17:28;;;;;;;;;;;11.60;99.90;;;;;;5062259;28;19939;-69
2022/10/01 02:19:57;;;;;;;;;;;11.70;99.90;;;;;;5065717;28;19924;-69
2022/10/01 02:22:28;;;;;;;;;;;11.70;99.90;;;;;;5066450;28;20015;-69
2022/10/01 02:24:57;;;;;;;;;;;11.80;99.90;;;;;;5071499;28;19924;-69
2022/10/01 02:27:27;;;;;;;;;;;11.80;99.90;;;;;;5070972;28;19925;-69
2022/10/01 02:29:54;;;;;;;;;;;11.80;99.90;;;;;;5072484;28;19924;-69
2022/10/01 02:32:22;;;;;;;;;;;11.90;99.90;;;;;;5071048;28;19931;-71
2022/10/01 02:34:50;;;;;;;;;;;11.90;99.90;;;;;;5069918;28;19936;-70
2022/10/01 02:37:20;;;;;;;;;;;11.90;99.90;;;;;;5071042;28;19924;-70
2022/10/01 02:39:48;;;;;;;;;;;11.90;99.90;;;;;;5065810;28;19925;-69
2022/10/01 02:42:16;;;;;;;;;;;11.90;99.90;;;;;;5067718;28;19925;-70
2022/10/01 02:44:44;;;;;;;;;;;11.90;99.90;;;;;;5072338;28;20454;-70
2022/10/01 02:47:14;;;;;;;;;;;12.00;99.90;;;;;;5068464;28;19925;-71
2022/10/01 02:49:41;;;;;;;;;;;12.00;99.90;;;;;;5068204;28;19930;-73
2022/10/01 02:52:09;;;;;;;;;;;12.00;99.90;;;;;;5068694;28;20031;-71
2022/10/01 02:54:40;;;;;;;;;;;12.00;99.90;;;;;;5066110;28;19924;-71
2022/10/01 02:57:26;;;;;;;;;;;12.00;99.90;;;;;;5066939;28;19924;-71
2022/10/01 02:59:55;;;;;;;;;;;12.00;99.90;;;;;;5068445;28;19924;-71
2022/10/01 03:02:22;;;;;;;;;;;11.90;99.90;;;;;;5067810;28;19924;-71
2022/10/01 03:04:49;;;;;;;;;;;11.90;99.90;;;;;;5071484;28;19928;-71
2022/10/01 03:07:17;;;;;;;;;;;11.90;99.90;;;;;;5069244;28;20027;-71
2022/10/01 03:09:45;;;;;;;;;;;11.90;99.90;;;;;;5068917;28;19924;-71
2022/10/01 03:12:12;;;;;;;;;;;11.90;99.90;;;;;;5067518;28;19932;-71
2022/10/01 03:14:39;;;;;;;;;;;11.90;99.90;;;;;;5070536;28;19930;-71
2022/10/01 03:17:06;;;;;;;;;;;11.90;99.90;;;;;;5068837;28;19932;-71
2022/10/01 03:19:32;;;;;;;;;;;11.90;99.90;;;;;;5070177;28;19924;-71
2022/10/01 03:21:59;;;;;;;;;;;11.90;99.90;;;;;;5067782;28;19924;-71
2022/10/01 03:24:25;;;;;;;;;;;12.00;99.90;;;;;;5066169;28;19931;-71
2022/10/01 03:26:53;;;;;;;;;;;12.00;99.90;;;;;;5071280;28;20164;-71
2022/10/01 03:29:20;;;;;;;;;;;12.00;99.90;;;;;;5066555;28;19930;-71
2022/10/01 03:31:47;;;;;;;;;;;12.10;99.90;;;;;;5069301;28;19931;-72
2022/10/01 03:34:13;;;;;;;;;;;12.10;99.90;;;;;;5066283;28;19931;-71
2022/10/01 03:36:40;;;;;;;;;;;12.10;99.90;;;;;;5068596;28;19929;-71
2022/10/01 03:39:07;;;;;;;;;;;12.20;99.90;;;;;;5066330;28;19924;-71
2022/10/01 03:41:33;;;;;;;;;;;12.20;99.90;;;;;;5052692;28;19925;-71
2022/10/01 03:44:01;;;;;;;;;;;12.30;99.90;;;;;;5065608;28;19968;-71
2022/10/01 03:46:29;;;;;;;;;;;12.30;99.90;;;;;;5069550;28;19925;-70
2022/10/01 03:48:56;;;;;;;;;;;12.40;99.90;;;;;;5065526;28;19962;-70
2022/10/01 03:51:23;;;;;;;;;;;12.40;99.90;;;;;;5070077;28;19959;-70
2022/10/01 03:53:49;;;;;;;;;;;12.50;99.90;;;;;;5068391;28;19939;-70
2022/10/01 03:56:17;;;;;;;;;;;12.50;99.90;;;;;;5069739;28;19924;-71
2022/10/01 03:58:43;;;;;;;;;;;12.60;99.90;;;;;;5067099;28;19928;-70
2022/10/01 04:01:11;;;;;;;;;;;12.60;99.90;;;;;;5067669;28;19928;-71
2022/10/01 04:03:39;;;;;;;;;;;12.60;99.90;;;;;;5060211;28;19932;-71
2022/10/01 04:06:05;;;;;;;;;;;12.60;99.90;;;;;;5065216;28;19928;-71
2022/10/01 04:08:32;;;;;;;;;;;12.70;99.90;;;;;;5060984;28;19931;-70
2022/10/01 04:10:59;;;;;;;;;;;12.70;99.90;;;;;;5064218;28;19924;-71
2022/10/01 04:13:26;;;;;;;;;;;12.70;99.90;;;;;;5064149;28;19929;-71
2022/10/01 04:15:53;;;;;;;;;;;12.70;99.90;;;;;;5069120;28;19947;-71
2022/10/01 04:18:21;;;;;;;;;;;12.70;99.90;;;;;;5064404;28;20355;-71
2022/10/01 04:20:48;;;;;;;;;;;12.70;99.90;;;;;;5068682;28;19932;-70
2022/10/01 04:23:15;;;;;;;;;;;12.70;99.90;;;;;;5068243;28;19930;-70
2022/10/01 04:25:41;;;;;;;;;;;12.80;99.90;;;;;;5066645;28;20299;-70
2022/10/01 04:28:10;;;;;;;;;;;12.80;99.90;;;;;;5068455;28;19924;-70
2022/10/01 04:30:38;;;;;;;;;;;12.80;99.90;;;;;;5065093;28;20380;-69
2022/10/01 04:33:05;;;;;;;;;;;12.80;99.90;;;;;;5059578;28;19931;-69
2022/10/01 04:35:33;;;;;;;;;;;12.70;99.90;;;;;;5068451;28;20187;-70
2022/10/01 04:38:02;;;;;;;;;;;12.80;99.90;;;;;;5064067;28;19935;-69
2022/10/01 04:40:29;;;;;;;;;;;12.80;99.90;;;;;;5063858;28;19928;-69
2022/10/01 04:42:56;;;;;;;;;;;12.80;99.90;;;;;;5066507;28;20023;-69
2022/10/01 04:45:22;;;;;;;;;;;12.90;99.90;;;;;;5065130;28;20268;-70
2022/10/01 04:47:49;;;;;;;;;;;12.80;99.90;;;;;;5068018;28;20012;-71
2022/10/01 04:50:16;;;;;;;;;;;12.80;99.90;;;;;;5068616;28;19924;-71
2022/10/01 04:52:44;;;;;;;;;;;12.90;99.90;;;;;;5059963;28;19929;-71
2022/10/01 04:55:11;;;;;;;;;;;12.90;99.90;;;;;;5071180;28;20321;-71
2022/10/01 04:57:38;;;;;;;;;;;12.90;99.90;;;;;;5070197;28;19955;-71
2022/10/01 05:00:06;;;;;;;;;;;12.90;99.90;;;;;;5068889;28;20307;-71
2022/10/01 05:02:33;;;;;;;;;;;13.00;99.90;;;;;;5071166;28;20024;-69
2022/10/01 05:04:59;;;;;;;;;;;13.00;99.90;;;;;;5068329;28;19931;-70
2022/10/01 05:07:26;;;;;;;;;;;13.00;99.90;;;;;;5068214;28;19924;-70
2022/10/01 05:09:54;;;;;;;;;;;13.00;99.90;;;;;;5070117;28;19924;-70
2022/10/01 05:12:21;;;;;;;;;;;13.10;99.90;;;;;;5070116;28;19925;-70
2022/10/01 05:14:48;;;;;;;;;;;13.10;99.90;;;;;;5073336;28;19928;-70
2022/10/01 05:17:17;;;;;;;;;;;13.10;99.90;;;;;;5070472;28;20272;-70
2022/10/01 05:19:43;;;;;;;;;;;13.10;99.90;;;;;;5069408;28;20271;-70
2022/10/01 05:22:11;;;;;;;;;;;13.10;99.90;;;;;;5070534;28;19928;-70
2022/10/01 05:24:37;;;;;;;;;;;13.20;99.90;;;;;;5068474;28;20510;-70
2022/10/01 05:27:08;;;;;;;;;;;13.20;99.90;;;;;;5061027;28;20542;-69
2022/10/01 05:29:35;;;;;;;;;;;13.20;99.90;;;;;;5069175;28;20288;-70
2022/10/01 05:32:02;;;;;;;;;;;13.20;99.90;;;;;;5064552;28;19925;-70
2022/10/01 05:34:29;;;;;;;;;;;13.20;99.90;;;;;;5065576;28;19935;-70
2022/10/01 05:36:55;;;;;;;;;;;13.20;99.90;;;;;;5070452;28;20111;-70
2022/10/01 05:39:22;;;;;;;;;;;13.20;99.90;;;;;;5071648;28;19924;-71
2022/10/01 05:41:49;;;;;;;;;;;13.30;99.90;;;;;;5067994;28;19924;-70
2022/10/01 05:44:18;;;;;;;;;;;13.30;99.90;;;;;;5072323;28;20398;-70
2022/10/01 05:46:44;;;;;;;;;;;13.30;99.90;;;;;;5066460;28;19931;-70
2022/10/01 05:49:11;;;;;;;;;;;13.30;99.90;;;;;;5070581;28;20018;-70
2022/10/01 05:51:38;;;;;;;;;;;13.30;99.90;;;;;;5069823;28;19994;-70
2022/10/01 05:54:04;;;;;;;;;;;13.30;99.90;;;;;;5070437;28;19931;-70
2022/10/01 05:56:31;;;;;;;;;;;13.30;99.90;;;;;;5070400;28;19928;-70
2022/10/01 05:58:58;;;;;;;;;;;13.30;99.90;;;;;;5065948;28;20302;-70
2022/10/01 06:01:27;;;;;;;;;;;13.30;99.90;;;;;;5070702;28;19950;-70
2022/10/01 06:03:54;;;;;;;;;;;13.30;99.90;;;;;;5065204;28;20004;-70
2022/10/01 06:06:21;;;;;;;;;;;13.30;99.90;;;;;;5068845;28;19936;-70
2022/10/01 06:08:48;;;;;;;;;;;13.20;99.90;;;;;;5064040;28;19978;-70
2022/10/01 06:11:15;;;;;;;;;;;13.20;99.90;;;;;;5068201;28;19925;-70
2022/10/01 06:13:44;;;;;;;;;;;13.20;99.90;;;;;;5071410;28;20046;-70
2022/10/01 06:16:11;;;;;;;;;;;13.30;99.90;;;;;;5069597;28;20385;-70
2022/10/01 06:18:39;;;;;;;;;;;13.30;99.90;;;;;;5059547;28;20346;-69
2022/10/01 06:21:06;;;;;;;;;;;13.30;99.90;;;;;;5068977;28;19933;-72
2022/10/01 06:23:33;;;;;;;;;;;13.30;99.90;;;;;;5067956;28;19931;-71
2022/10/01 06:26:00;;;;;;;;;;;13.30;99.90;;;;;;5069765;28;19924;-71
2022/10/01 06:28:27;;;;;;;;;;;13.40;99.90;;;;;;5069517;28;19930;-70
2022/10/01 06:30:53;;;;;;;;;;;13.40;99.90;;;;;;5067037;28;20006;-70
2022/10/01 06:33:20;;;;;;;;;;;13.50;99.90;;;;;;5062428;28;19929;-70
2022/10/01 06:35:49;;;;;;;;;;;13.50;99.90;;;;;;5069901;28;19924;-70
2022/10/01 06:38:16;;;;;;;;;;;13.60;99.90;;;;;;5071414;28;19968;-70
2022/10/01 06:40:42;;;;;;;;;;;13.60;99.90;;;;;;5072066;28;19929;-71
2022/10/01 06:43:09;;;;;;;;;;;13.60;99.90;;;;;;5070625;28;19932;-70
2022/10/01 06:45:38;;;;;;;;;;;13.70;99.90;;;;;;5071438;28;19930;-70
2022/10/01 06:48:05;;;;;;;;;;;13.80;99.90;;;;;;5067490;28;20505;-69
2022/10/01 06:50:32;;;;;;;;;;;13.80;99.90;;;;;;5066682;28;20143;-69
2022/10/01 06:53:00;;;;;;;;;;;13.90;99.90;;;;;;5069854;28;19939;-70
2022/10/01 06:55:28;;;;;;;;;;;14.00;99.90;;;;;;5063942;28;19925;-70
2022/10/01 06:57:57;;;;;;;;;;;14.00;99.90;;;;;;5069893;28;20597;-70
2022/10/01 07:00:24;;;;;;;;;;;14.10;99.90;;;;;;5070800;28;20051;-70
2022/10/01 07:02:51;;;;;;;;;;;14.00;99.90;;;;;;5069273;28;19931;-70
2022/10/01 07:05:17;;;;;;;;;;;14.10;99.90;;;;;;5067949;28;20406;-70
2022/10/01 07:07:44;;;;;;;;;;;14.10;99.90;;;;;;5062418;28;19931;-69
2022/10/01 07:10:12;;;;;;;;;;;14.20;99.90;;;;;;5069045;28;19924;-71
2022/10/01 07:12:39;;;;;;;;;;;14.30;99.90;;;;;;5070894;28;19963;-71
2022/10/01 07:15:06;;;;;;;;;;;14.40;99.90;;;;;;5068497;28;20023;-70
2022/10/01 07:17:33;;;;;;;;;;;14.40;99.90;;;;;;5065395;28;19931;-68
2022/10/01 07:20:00;;;;;;;;;;;14.50;99.90;;;;;;5063463;28;19960;-68
2022/10/01 07:22:27;;;;;;;;;;;14.50;99.90;;;;;;5065668;28;19990;-69
2022/10/01 07:24:54;;;;;;;;;;;14.60;99.90;;;;;;5057911;28;20473;-68
2022/10/01 07:27:22;;;;;;;;;;;14.70;99.90;;;;;;5063664;28;19998;-68
2022/10/01 07:29:48;;;;;;;;;;;14.80;99.90;;;;;;5059245;28;20682;-68
2022/10/01 07:32:15;;;;;;;;;;;14.80;99.90;;;;;;5057814;28;20015;-68
2022/10/01 07:34:42;;;;;;;;;;;15.00;99.90;;;;;;5063479;28;19964;-68
2022/10/01 07:37:09;;;;;;;;;;;16.20;99.90;;;;;;5062355;28;19924;-68
2022/10/01 07:39:35;;;;;;;;;;;18.00;99.90;;;;;;5064129;28;19932;-67
2022/10/01 07:42:02;;;;;;;;;;;18.20;99.90;;;;;;5056785;28;19924;-68
2022/10/01 07:44:30;;;;;;;;;;;18.20;99.90;;;;;;5057774;28;19955;-68
2022/10/01 07:46:57;;;;;;;;;;;19.70;99.90;;;;;;5057989;28;21163;-69
2022/10/01 07:49:24;;;;;;;;;;;19.60;99.90;;;;;;5061029;28;19935;-69
2022/10/01 07:51:52;;;;;;;;;;;19.70;99.90;;;;;;5060453;28;19936;-69
2022/10/01 07:54:20;;;;;;;;;;;19.80;99.90;;;;;;5065115;28;19986;-69
2022/10/01 07:56:47;;;;;;;;;;;20.00;99.90;;;;;;5058193;28;20202;-69
2022/10/01 07:59:14;;;;;;;;;;;20.60;99.90;;;;;;5064892;28;19932;-69
2022/10/01 08:01:42;;;;;;;;;;;20.40;99.90;;;;;;5061669;28;19925;-69
2022/10/01 08:06:50;;;;;;;;;;;21.20;99.90;;;;;;5055322;28;19925;-67
2022/10/01 08:09:17;;;;;;;;;;;21.10;99.90;;;;;;5063315;28;19932;-68
2022/10/01 08:11:44;;;;;;;;;;;21.40;99.90;;;;;;5057674;28;19935;-67
2022/10/01 08:14:11;;;;;;;;;;;21.40;99.90;;;;;;5062968;28;20523;-67
2022/10/01 08:16:38;;;;;;;;;;;21.30;99.90;;;;;;5060771;28;19933;-67
2022/10/01 08:19:06;;;;;;;;;;;20.70;99.90;;;;;;5058178;28;19941;-67
2022/10/01 08:21:34;;;;;;;;;;;19.80;99.90;;;;;;5058927;28;20332;-67
2022/10/01 08:24:01;;;;;;;;;;;19.10;99.90;;;;;;5066169;28;19925;-67
2022/10/01 08:26:28;;;;;;;;;;;18.50;99.90;;;;;;5062727;28;19932;-67
2022/10/01 08:28:54;;;;;;;;;;;18.00;99.90;;;;;;5060723;28;19928;-67
2022/10/01 08:31:21;;;;;;;;;;;17.50;99.90;;;;;;5061962;28;20051;-67
2022/10/01 08:33:48;;;;;;;;;;;18.00;99.90;;;;;;5064819;28;19932;-67
2022/10/01 08:36:16;;;;;;;;;;;18.00;99.90;;;;;;5062018;28;20045;-69
2022/10/01 08:38:44;;;;;;;;;;;18.50;99.90;;;;;;5066147;28;20071;-70
2022/10/01 08:41:17;;;;;;;;;;;18.80;99.90;;;;;;5066646;28;19924;-67
2022/10/01 08:43:44;;;;;;;;;;;20.30;99.90;;;;;;5063796;28;20015;-67
2022/10/01 08:46:12;;;;;;;;;;;20.70;99.90;;;;;;5058089;28;19925;-67
2022/10/01 08:48:44;;;;;;;;;;;20.20;99.90;;;;;;5056557;28;19925;-68
2022/10/01 08:51:15;;;;;;;;;;;20.10;99.90;;;;;;5056264;28;20023;-68
2022/10/01 08:53:45;;;;;;;;;;;20.00;99.90;;;;;;5058922;28;20434;-68
2022/10/01 08:56:17;;;;;;;;;;;20.30;99.90;;;;;;5055132;28;19931;-68
2022/10/01 08:58:48;;;;;;;;;;;21.30;99.90;;;;;;5056317;28;20422;-68
2022/10/01 09:01:15;;;;;;;;;;;20.50;99.90;;;;;;5061366;28;19932;-69
2022/10/01 09:03:41;;;;;;;;;;;19.60;99.90;;;;;;5064064;28;20057;-68
2022/10/01 09:06:16;;;;;;;;;;;19.80;99.90;;;;;;5061598;28;19931;-68
2022/10/01 09:08:47;;;;;;;;;;;20.90;99.90;;;;;;5063474;28;19928;-67
2022/10/01 09:11:32;;;;;;;;;;;21.10;99.10;;;;;;5058925;28;20338;-68
2022/10/01 09:14:09;;;;;;;;;;;19.50;99.90;;;;;;5060151;28;19925;-67
2022/10/01 09:16:41;;;;;;;;;;;18.80;99.90;;;;;;5063490;28;19925;-68
2022/10/01 09:19:15;;;;;;;;;;;18.80;99.90;;;;;;5062306;28;20043;-68
2022/10/01 09:21:50;;;;;;;;;;;18.90;99.90;;;;;;5054158;28;19928;-68
2022/10/01 09:24:24;;;;;;;;;;;20.30;99.90;;;;;;5058835;28;19955;-69
2022/10/01 09:26:51;;;;;;;;;;;20.40;99.90;;;;;;5061538;28;19943;-69
2022/10/01 09:29:22;;;;;;;;;;;19.70;99.90;;;;;;5061312;28;19932;-69
2022/10/01 09:31:50;;;;;;;;;;;19.50;99.90;;;;;;5062117;28;20682;-69
2022/10/01 09:34:24;;;;;;;;;;;18.80;99.90;;;;;;5067023;28;19924;-69
2022/10/01 09:36:59;;;;;;;;;;;18.50;99.90;;;;;;5066585;28;19955;-68
2022/10/01 09:39:29;;;;;;;;;;;18.00;99.90;;;;;;5065967;28;19974;-69
2022/10/01 09:41:56;;;;;;;;;;;17.90;99.90;;;;;;5069853;28;19931;-69
2022/10/01 09:44:26;;;;;;;;;;;17.70;99.90;;;;;;5068253;28;20307;-69
2022/10/01 09:46:54;;;;;;;;;;;17.90;99.90;;;;;;5070675;28;19935;-68
2022/10/01 09:49:26;;;;;;;;;;;18.20;99.90;;;;;;5060402;28;20303;-69
2022/10/01 09:51:55;;;;;;;;;;;17.90;99.90;;;;;;5069954;28;19932;-70
2022/10/01 09:54:25;;;;;;;;;;;17.70;99.90;;;;;;5065977;28;19936;-69
2022/10/01 09:56:55;;;;;;;;;;;17.60;99.90;;;;;;5069852;28;20036;-69
2022/10/01 09:59:24;;;;;;;;;;;17.50;99.90;;;;;;5065087;28;19939;-70
2022/10/01 10:01:53;;;;;;;;;;;17.50;99.90;;;;;;5061541;28;20344;-69
2022/10/01 10:04:22;;;;;;;;;;;17.40;99.90;;;;;;5061302;28;19931;-69
2022/10/01 10:06:49;;;;;;;;;;;17.30;99.90;;;;;;5065531;28;19924;-69
2022/10/01 10:09:16;;;;;;;;;;;17.30;99.90;;;;;;5063058;28;19929;-69
2022/10/01 10:11:44;;;;;;;;;;;17.60;99.90;;;;;;5062685;28;20023;-69
2022/10/01 10:14:15;;;;;;;;;;;17.80;99.90;;;;;;5061488;28;19925;-69
2022/10/01 10:16:45;;;;;;;;;;;18.00;99.90;;;;;;5070212;28;20007;-69
2022/10/01 10:19:15;;;;;;;;;;;18.00;99.90;;;;;;5063733;28;19924;-69
2022/10/01 10:21:50;;;;;;;;;;;18.00;99.90;;;;;;5064527;28;19924;-68
2022/10/01 10:24:26;;;;;;;;;;;17.90;99.90;;;;;;5057850;28;20087;-69
2022/10/01 10:26:54;;;;;;;;;;;18.10;99.90;;;;;;5062156;28;19968;-68
2022/10/01 10:29:30;;;;;;;;;;;18.30;99.90;;;;;;5064957;28;19932;-67
2022/10/01 10:31:57;;;;;;;;;;;18.40;99.90;;;;;;5061774;28;19928;-68
2022/10/01 10:34:26;;;;;;;;;;;18.70;99.90;;;;;;5058397;28;20271;-68
2022/10/01 10:36:57;;;;;;;;;;;18.80;99.90;;;;;;5060960;28;19924;-68
2022/10/01 10:39:26;;;;;;;;;;;18.80;99.90;;;;;;5064830;28;20298;-69
2022/10/01 10:41:55;;;;;;;;;;;18.80;99.90;;;;;;5061153;28;19924;-69
2022/10/01 10:44:23;;;;;;;;;;;18.80;99.90;;;;;;5063071;28;19924;-67
2022/10/01 10:46:52;;;;;;;;;;;18.70;99.90;;;;;;5061897;28;20318;-67
2022/10/01 10:49:21;;;;;;;;;;;18.70;99.90;;;;;;5061455;28;20014;-68
2022/10/01 10:51:52;;;;;;;;;;;18.50;99.90;;;;;;5060088;28;19928;-68
2022/10/01 10:54:20;;;;;;;;;;;18.50;99.90;;;;;;5065062;28;20009;-69
2022/10/01 10:56:59;;;;;;;;;;;18.60;99.90;;;;;;5068735;28;19924;-69
2022/10/01 10:59:26;;;;;;;;;;;18.40;99.90;;;;;;5065081;28;19976;-69
2022/10/01 11:01:54;;;;;;;;;;;18.20;99.90;;;;;;5066468;28;20011;-67
2022/10/01 11:04:26;;;;;;;;;;;18.30;99.90;;;;;;5064390;28;19924;-67
2022/10/01 11:06:54;;;;;;;;;;;18.50;99.90;;;;;;5071079;28;20401;-68
2022/10/01 11:09:21;;;;;;;;;;;19.00;99.90;;;;;;5066464;28;19924;-68
2022/10/01 11:11:52;;;;;;;;;;;19.20;99.90;;;;;;5060214;28;20003;-72
2022/10/01 11:14:23;;;;;;;;;;;18.90;99.90;;;;;;5067401;28;19924;-68
2022/10/01 11:17:03;;;;;;;;;;;18.70;99.90;;;;;;5067576;28;19925;-68
2022/10/01 11:19:38;;;;;;;;;;;18.60;99.90;;;;;;5067366;28;20338;-68
2022/10/01 11:22:26;;;;;;;;;;;18.10;99.90;;;;;;5060822;28;19932;-68
2022/10/01 11:25:01;;;;;;;;;;;17.90;99.90;;;;;;5069517;28;19947;-68
2022/10/01 11:27:35;;;;;;;;;;;17.70;99.90;;;;;;5065064;28;20007;-69
2022/10/01 11:30:05;;;;;;;;;;;17.70;99.90;;;;;;5060540;28;19925;-66
2022/10/01 11:32:37;;;;;;;;;;;17.70;99.90;;;;;;5065474;28;20015;-67
2022/10/01 11:35:15;;;;;;;;;;;17.50;99.90;;;;;;5067472;28;19931;-69
2022/10/01 11:37:47;;;;;;;;;;;17.40;99.90;;;;;;5064480;28;19935;-67
2022/10/01 11:40:15;;;;;;;;;;;17.30;99.90;;;;;;5070085;28;19931;-67
2022/10/01 11:42:43;;;;;;;;;;;17.40;99.90;;;;;;5067774;28;20287;-67
2022/10/01 11:45:15;;;;;;;;;;;17.40;99.90;;;;;;5069979;28;20014;-67
2022/10/01 11:47:46;;;;;;;;;;;17.50;99.90;;;;;;5065331;28;20019;-67
2022/10/01 11:50:15;;;;;;;;;;;17.50;99.90;;;;;;5068252;28;19924;-67
2022/10/01 11:52:43;;;;;;;;;;;17.40;99.90;;;;;;5068859;28;19925;-67
2022/10/01 12:00:52;;;;;;;;;;;17.20;99.90;;;;;;5051626;28;19935;-67
2022/10/01 12:03:25;;;;;;;;;;;17.20;99.90;;;;;;5056409;28;19931;-68
2022/10/01 12:05:52;;;;;;;;;;;17.40;99.90;;;;;;5062957;28;20450;-67
2022/10/01 12:08:23;;;;;;;;;;;17.30;99.90;;;;;;5067533;28;20047;-68
2022/10/01 12:10:53;;;;;;;;;;;17.30;99.90;;;;;;5068613;28;19960;-67
2022/10/01 12:13:23;;;;;;;;;;;17.30;99.90;;;;;;5065164;28;19932;-68
2022/10/01 12:15:53;;;;;;;;;;;17.30;99.90;;;;;;5070786;28;19931;-68
2022/10/01 12:18:23;;;;;;;;;;;17.30;99.90;;;;;;5065948;28;20385;-68
2022/10/01 12:20:51;;;;;;;;;;;17.50;99.90;;;;;;5068369;28;20359;-68
2022/10/01 12:23:19;;;;;;;;;;;17.60;99.90;;;;;;5066761;28;19924;-67
2022/10/01 12:25:50;;;;;;;;;;;18.00;99.90;;;;;;5069836;28;19929;-69
2022/10/01 12:28:18;;;;;;;;;;;18.30;99.90;;;;;;5068168;28;19933;-70
2022/10/01 12:30:48;;;;;;;;;;;18.20;99.90;;;;;;5070120;28;19924;-68
2022/10/01 12:33:26;;;;;;;;;;;18.30;99.20;;;;;;5067039;28;19925;-68
2022/10/01 12:36:02;;;;;;;;;;;18.40;98.60;;;;;;5070100;28;19932;-68
2022/10/01 12:38:33;;;;;;;;;;;18.30;97.90;;;;;;5068344;28;20019;-68
2022/10/01 12:41:04;;;;;;;;;;;18.40;97.40;;;;;;5069688;28;19928;-69
2022/10/01 12:43:40;;;;;;;;;;;18.40;96.60;;;;;;5065617;28;19978;-68
2022/10/01 12:46:11;;;;;;;;;;;18.60;96.50;;;;;;5069493;28;20011;-68
2022/10/01 12:48:41;;;;;;;;;;;18.90;96.40;;;;;;5066962;28;19931;-68
2022/10/01 12:51:31;;;;;;;;;;;18.90;96.20;;;;;;5068973;28;20355;-69
2022/10/01 12:54:03;;;;;;;;;;;19.10;96.60;;;;;;5066906;28;19924;-67
2022/10/01 12:56:34;;;;;;;;;;;19.20;95.90;;;;;;5069780;28;19925;-68
2022/10/01 12:59:16;;;;;;;;;;;19.20;95.40;;;;;;5067818;28;19925;-68
2022/10/01 13:01:48;;;;;;;;;;;19.20;95.30;;;;;;5070471;28;19929;-68
2022/10/01 13:04:23;;;;;;;;;;;18.90;95.20;;;;;;5063618;28;20440;-68
2022/10/01 13:06:59;;;;;;;;;;;18.70;94.90;;;;;;5063197;28;19924;-68
2022/10/01 13:09:30;;;;;;;;;;;18.20;95.40;;;;;;5065665;28;20416;-69
2022/10/01 13:12:06;;;;;;;;;;;17.80;96.00;;;;;;5068232;28;19966;-69
2022/10/01 13:14:33;;;;;;;;;;;18.00;96.70;;;;;;5066354;28;19931;-67
2022/10/01 13:17:02;;;;;;;;;;;18.30;96.40;;;;;;5070927;28;19924;-68
2022/10/01 13:19:32;;;;;;;;;;;18.30;95.80;;;;;;5068015;28;19999;-68
2022/10/01 13:22:06;;;;;;;;;;;18.30;95.60;;;;;;5073895;28;20023;-67
2022/10/01 13:24:36;;;;;;;;;;;18.50;95.50;;;;;;5072187;28;19924;-68
2022/10/01 13:27:04;;;;;;;;;;;18.50;95.90;;;;;;5066673;28;20280;-69
2022/10/01 13:29:36;;;;;;;;;;;18.60;95.10;;;;;;5072070;28;19925;-69
2022/10/01 13:32:04;;;;;;;;;;;18.70;94.80;;;;;;5072207;28;20020;-68
2022/10/01 13:34:34;;;;;;;;;;;18.60;95.80;;;;;;5067328;28;19933;-68
2022/10/01 13:37:16;;;;;;;;;;;18.40;95.50;;;;;;5072809;28;19928;-69
2022/10/01 13:39:43;;;;;;;;;;;18.20;95.80;;;;;;5072009;28;20007;-68
2022/10/01 13:42:25;;;;;;;;;;;18.10;96.00;;;;;;5073232;28;20015;-67
2022/10/01 13:44:53;;;;;;;;;;;18.00;95.90;;;;;;5060213;28;19951;-68
2022/10/01 13:47:20;;;;;;;;;;;17.90;95.70;;;;;;5070916;28;20299;-68
2022/10/01 13:49:54;;;;;;;;;;;17.80;95.80;;;;;;5071222;28;20031;-68
2022/10/01 13:52:22;;;;;;;;;;;17.80;95.90;;;;;;5070671;28;19924;-68
2022/10/01 13:54:49;;;;;;;;;;;18.00;95.90;;;;;;5070936;28;19932;-68
2022/10/01 13:57:26;;;;;;;;;;;18.10;95.30;;;;;;5065728;28;19978;-68
2022/10/01 13:59:57;;;;;;;;;;;18.00;95.60;;;;;;5070814;28;19924;-68
2022/10/01 14:02:28;;;;;;;;;;;18.10;95.40;;;;;;5071152;28;19925;-68
2022/10/01 14:04:56;;;;;;;;;;;18.30;95.30;;;;;;5070745;28;19924;-68
2022/10/01 14:07:27;;;;;;;;;;;18.40;94.70;;;;;;5072387;28;20378;-68
2022/10/01 14:09:57;;;;;;;;;;;18.50;95.20;;;;;;5069728;28;19931;-69
2022/10/01 14:18:01;;;;;;;;;;;19.30;94.00;;;;;;5068267;28;19936;-68
2022/10/01 14:20:47;;;;;;;;;;;19.40;94.20;;;;;;5065305;28;19924;-69
2022/10/01 14:23:16;;;;;;;;;;;19.50;94.20;;;;;;5064916;28;19936;-68
2022/10/01 14:25:48;;;;;;;;;;;19.30;92.50;;;;;;5068338;28;19928;-68
2022/10/01 14:28:20;;;;;;;;;;;19.00;92.00;;;;;;5066490;28;23082;-68
2022/10/01 14:30:50;;;;;;;;;;;18.80;92.40;;;;;;5062894;28;20284;-68
2022/10/01 14:33:36;;;;;;;;;;;18.70;91.30;;;;;;5066594;28;19932;-68
2022/10/01 14:36:07;;;;;;;;;;;18.60;91.30;;;;;;5066132;28;19928;-68
2022/10/01 14:38:35;;;;;;;;;;;18.40;91.30;;;;;;5061609;28;19932;-69
2022/10/01 14:41:02;;;;;;;;;;;18.10;91.70;;;;;;5063859;28;19960;-69